createdAt,value
2023-03-12T00:01:59.465Z,1.52
2023-03-12T00:04:26.228Z,1.52
2023-03-12T00:06:52.672Z,1.54
2023-03-12T00:09:19.638Z,1.54
2023-03-12T00:11:46.010Z,1.55
2023-03-12T00:14:12.513Z,1.55
2023-03-12T00:16:38.900Z,1.54
2023-03-12T00:19:05.396Z,1.53
2023-03-12T00:21:31.886Z,1.53
2023-03-12T00:23:58.402Z,1.54
2023-03-12T00:26:24.837Z,1.54
2023-03-12T00:28:51.397Z,1.53
2023-03-12T00:31:23.369Z,1.54
2023-03-12T00:33:50.387Z,1.56
2023-03-12T00:36:18.383Z,1.60
2023-03-12T00:38:44.801Z,1.62
2023-03-12T00:41:11.261Z,1.64
2023-03-12T00:43:37.667Z,1.68
2023-03-12T00:46:04.427Z,1.70
2023-03-12T00:48:30.851Z,1.72
2023-03-12T00:50:57.304Z,1.74
2023-03-12T00:53:23.696Z,1.77
2023-03-12T00:55:50.241Z,1.80
2023-03-12T00:58:16.708Z,1.81
2023-03-12T01:00:43.197Z,1.84
2023-03-12T01:03:09.683Z,1.86
2023-03-12T01:05:38.072Z,1.87
2023-03-12T01:08:05.398Z,1.87
2023-03-12T01:10:31.842Z,1.89
2023-03-12T01:12:58.533Z,1.90
2023-03-12T01:15:25.384Z,1.89
2023-03-12T01:17:51.805Z,1.90
2023-03-12T01:20:18.334Z,1.91
2023-03-12T01:22:44.797Z,1.92
2023-03-12T01:25:12.267Z,1.92
2023-03-12T01:27:38.703Z,1.92
2023-03-12T01:30:05.750Z,1.94
2023-03-12T01:32:32.194Z,1.95
2023-03-12T01:35:00.205Z,1.96
2023-03-12T01:37:27.435Z,1.98
2023-03-12T01:39:53.872Z,1.99
2023-03-12T01:42:20.398Z,2.00
2023-03-12T01:44:57.692Z,2.01
2023-03-12T01:47:27.930Z,2.02
2023-03-12T01:49:55.973Z,2.05
2023-03-12T01:52:27.005Z,2.07
2023-03-12T01:54:59.711Z,2.07
2023-03-12T01:57:36.480Z,2.08
2023-03-12T02:00:11.950Z,2.08
2023-03-12T02:02:39.131Z,2.07
2023-03-12T02:05:28.364Z,2.06
2023-03-12T02:07:55.107Z,2.08
2023-03-12T02:10:22.720Z,2.12
2023-03-12T02:12:49.348Z,2.13
2023-03-12T02:15:15.794Z,2.13
2023-03-12T02:17:42.260Z,2.13
2023-03-12T02:20:21.114Z,2.11
2023-03-12T02:23:09.185Z,2.08
2023-03-12T02:25:49.631Z,2.04
2023-03-12T02:28:18.478Z,2.04
2023-03-12T02:30:48.282Z,2.06
2023-03-12T02:33:15.936Z,2.06
2023-03-12T02:35:42.548Z,2.06
2023-03-12T02:38:45.853Z,2.07
2023-03-12T02:41:21.194Z,2.09
2023-03-12T02:43:59.137Z,2.12
2023-03-12T02:46:26.751Z,2.12
2023-03-12T02:48:53.875Z,2.14
2023-03-12T02:51:20.248Z,2.17
2023-03-12T02:53:46.839Z,2.19
2023-03-12T02:56:13.302Z,2.21
2023-03-12T02:58:39.692Z,2.22
2023-03-12T03:01:06.197Z,2.22
2023-03-12T03:03:32.669Z,2.24
2023-03-12T03:05:59.196Z,2.25
2023-03-12T03:08:25.645Z,2.25
2023-03-12T03:10:52.652Z,2.27
2023-03-12T03:13:19.058Z,2.30
2023-03-12T03:15:45.566Z,2.32
2023-03-12T03:18:12.142Z,2.30
2023-03-12T03:20:38.598Z,2.32
2023-03-12T03:23:05.101Z,2.31
2023-03-12T03:25:33.797Z,2.33
2023-03-12T03:28:00.224Z,2.32
2023-03-12T03:30:26.677Z,2.35
2023-03-12T03:32:53.152Z,2.33
2023-03-12T03:35:19.833Z,2.32
2023-03-12T03:37:46.295Z,2.34
2023-03-12T03:40:12.914Z,2.38
2023-03-12T03:42:40.570Z,2.41
2023-03-12T03:45:08.229Z,2.41
2023-03-12T03:47:34.984Z,2.45
2023-03-12T03:50:01.446Z,2.50
2023-03-12T03:52:27.850Z,2.55
2023-03-12T03:54:54.385Z,2.59
2023-03-12T03:57:20.824Z,2.62
2023-03-12T03:59:47.271Z,2.65
2023-03-12T04:02:13.699Z,2.66
2023-03-12T04:04:40.089Z,2.71
2023-03-12T04:07:06.581Z,2.72
2023-03-12T04:09:33.210Z,2.76
2023-03-12T04:11:59.632Z,2.81
2023-03-12T04:14:26.055Z,2.82
2023-03-12T04:16:52.495Z,2.83
2023-03-12T04:19:18.901Z,2.86
2023-03-12T04:21:45.389Z,2.88
2023-03-12T04:24:16.530Z,2.90
2023-03-12T04:26:43.483Z,2.92
2023-03-12T04:29:09.911Z,2.93
2023-03-12T04:31:36.386Z,2.96
2023-03-12T04:34:02.870Z,2.99
2023-03-12T04:36:29.349Z,3.00
2023-03-12T04:38:56.988Z,2.99
2023-03-12T04:41:23.492Z,2.99
2023-03-12T04:43:49.849Z,2.96
2023-03-12T04:46:16.387Z,2.94
2023-03-12T04:48:42.890Z,2.93
2023-03-12T04:51:09.352Z,2.93
2023-03-12T04:53:36.154Z,2.93
2023-03-12T04:56:02.719Z,2.92
2023-03-12T04:58:29.165Z,2.92
2023-03-12T05:00:55.710Z,2.92
2023-03-12T05:03:22.226Z,2.91
2023-03-12T05:05:48.661Z,2.87
2023-03-12T05:08:15.108Z,2.84
2023-03-12T05:10:45.131Z,2.78
2023-03-12T05:13:20.679Z,2.76
2023-03-12T05:15:48.503Z,2.71
2023-03-12T05:18:14.964Z,2.72
2023-03-12T05:20:41.492Z,2.73
2023-03-12T05:23:08.116Z,2.75
2023-03-12T05:25:37.963Z,2.74
2023-03-12T05:28:04.429Z,2.70
2023-03-12T05:30:30.827Z,2.65
2023-03-12T05:32:57.322Z,2.63
2023-03-12T05:35:23.799Z,2.61
2023-03-12T05:37:50.358Z,2.60
2023-03-12T05:40:16.765Z,2.55
2023-03-12T05:42:43.124Z,2.52
2023-03-12T05:45:10.016Z,2.53
2023-03-12T05:47:36.480Z,2.54
2023-03-12T05:50:02.936Z,2.54
2023-03-12T05:52:29.341Z,2.53
2023-03-12T05:54:55.861Z,2.56
2023-03-12T05:57:22.387Z,2.62
2023-03-12T05:59:48.756Z,2.65
2023-03-12T06:02:15.184Z,2.65
2023-03-12T06:04:41.585Z,2.66
2023-03-12T06:07:07.989Z,2.65
2023-03-12T06:09:35.706Z,2.64
2023-03-12T06:12:02.138Z,2.63
2023-03-12T06:14:28.702Z,2.66
2023-03-12T06:16:55.158Z,2.70
2023-03-12T06:19:21.657Z,2.70
2023-03-12T06:21:48.074Z,2.70
2023-03-12T06:24:14.483Z,2.65
2023-03-12T06:26:41.456Z,2.65
2023-03-12T06:29:07.909Z,2.70
2023-03-12T06:31:37.232Z,2.74
2023-03-12T06:34:05.275Z,2.73
2023-03-12T06:36:31.722Z,2.74
2023-03-12T06:38:58.101Z,2.75
2023-03-12T06:41:24.475Z,2.77
2023-03-12T06:43:51.018Z,2.75
2023-03-12T06:46:21.653Z,2.80
2023-03-12T06:48:48.106Z,2.80
2023-03-12T06:51:16.282Z,2.81
2023-03-12T06:53:42.843Z,2.82
2023-03-12T06:56:10.157Z,2.82
2023-03-12T06:58:36.712Z,2.85
2023-03-12T07:01:04.022Z,2.83
2023-03-12T07:03:30.514Z,2.85
2023-03-12T07:05:57.782Z,2.83
2023-03-12T07:08:24.672Z,2.83
2023-03-12T07:10:51.125Z,2.82
2023-03-12T07:13:17.556Z,2.83
2023-03-12T07:15:46.421Z,2.83
2023-03-12T07:18:12.951Z,2.87
2023-03-12T07:20:41.874Z,2.87
2023-03-12T07:23:09.059Z,2.90
2023-03-12T07:25:37.459Z,2.94
2023-03-12T07:28:04.211Z,2.99
2023-03-12T07:30:33.349Z,3.04
2023-03-12T07:33:03.914Z,3.11
2023-03-12T07:35:31.321Z,3.15
2023-03-12T07:37:58.308Z,3.16
2023-03-12T07:40:25.598Z,3.18
2023-03-12T07:42:52.523Z,3.20
2023-03-12T07:45:20.001Z,3.32
2023-03-12T07:47:47.518Z,3.39
2023-03-12T07:50:15.162Z,3.42
2023-03-12T07:52:41.877Z,3.45
2023-03-12T07:55:09.362Z,3.42
2023-03-12T07:57:36.454Z,3.41
2023-03-12T08:00:07.266Z,3.40
2023-03-12T08:02:34.758Z,3.43
2023-03-12T08:05:01.294Z,3.39
2023-03-12T08:07:32.215Z,3.40
2023-03-12T08:09:59.593Z,3.43
2023-03-12T08:12:26.257Z,3.42
2023-03-12T08:14:52.709Z,3.47
2023-03-12T08:17:19.221Z,3.51
2023-03-12T08:19:45.690Z,3.57
2023-03-12T08:22:12.125Z,3.63
2023-03-12T08:24:38.489Z,3.67
2023-03-12T08:27:04.955Z,3.74
2023-03-12T08:29:33.517Z,3.80
2023-03-12T08:32:05.411Z,3.80
2023-03-12T08:34:35.170Z,3.88
2023-03-12T08:37:02.937Z,3.95
2023-03-12T08:39:29.583Z,3.88
2023-03-12T08:41:56.056Z,3.86
2023-03-12T08:44:23.004Z,3.91
2023-03-12T08:46:49.653Z,3.93
2023-03-12T08:49:16.161Z,3.88
2023-03-12T08:51:42.546Z,3.95
2023-03-12T08:54:09.472Z,3.95
2023-03-12T08:56:41.908Z,4.00
2023-03-12T08:59:09.811Z,4.05
2023-03-12T09:01:36.313Z,4.09
2023-03-12T09:04:04.200Z,4.17
2023-03-12T09:06:30.715Z,4.21
2023-03-12T09:08:57.650Z,4.27
2023-03-12T09:11:24.164Z,4.37
2023-03-12T09:14:18.683Z,4.46
2023-03-12T09:16:36.963Z,4.47
2023-03-12T09:19:04.158Z,4.52
2023-03-12T09:21:30.827Z,4.60
2023-03-12T09:23:57.673Z,4.71
2023-03-12T09:26:24.167Z,4.84
2023-03-12T09:28:50.912Z,4.96
2023-03-12T09:31:17.405Z,5.07
2023-03-12T09:33:43.882Z,5.15
2023-03-12T09:36:10.480Z,5.15
2023-03-12T09:38:37.917Z,5.11
2023-03-12T09:41:06.184Z,5.11
2023-03-12T09:43:38.825Z,5.15
2023-03-12T09:46:12.708Z,5.21
2023-03-12T09:48:39.557Z,5.20
2023-03-12T09:51:14.130Z,5.28
2023-03-12T09:53:46.990Z,5.36
2023-03-12T09:56:18.388Z,5.50
2023-03-12T09:58:48.321Z,5.57
2023-03-12T10:01:36.858Z,5.72
2023-03-12T10:04:18.605Z,5.84
2023-03-12T10:07:14.342Z,5.93
2023-03-12T10:10:08.836Z,6.01
2023-03-12T10:12:58.119Z,6.08
2023-03-12T10:15:52.890Z,6.18
2023-03-12T10:18:54.878Z,6.30
2023-03-12T10:21:42.951Z,6.45
2023-03-12T10:24:25.285Z,6.60
2023-03-12T10:26:55.669Z,6.79
2023-03-12T10:29:26.593Z,6.82
2023-03-12T10:32:11.400Z,6.96
2023-03-12T10:34:52.635Z,7.04
2023-03-12T10:37:24.773Z,7.12
2023-03-12T10:39:52.743Z,7.24
2023-03-12T10:42:30.061Z,7.24
2023-03-12T10:45:01.253Z,7.28
2023-03-12T10:47:44.735Z,7.38
2023-03-12T10:50:17.809Z,7.48
2023-03-12T10:52:46.236Z,7.61
2023-03-12T10:55:20.859Z,7.75
2023-03-12T10:57:47.606Z,7.86
2023-03-12T11:00:29.445Z,7.95
2023-03-12T11:03:06.101Z,8.01
2023-03-12T11:05:36.293Z,8.06
2023-03-12T11:08:04.277Z,8.13
2023-03-12T11:10:45.709Z,8.23
2023-03-12T11:13:22.987Z,8.36
2023-03-12T11:15:51.046Z,8.39
2023-03-12T11:18:28.186Z,8.55
2023-03-12T11:21:09.764Z,8.72
2023-03-12T11:23:39.276Z,8.84
2023-03-12T11:26:15.868Z,8.99
2023-03-12T11:28:46.438Z,9.12
2023-03-12T11:31:22.177Z,9.32
2023-03-12T11:33:49.532Z,9.62
2023-03-12T11:36:37.008Z,9.83
2023-03-12T11:39:25.333Z,10.09
2023-03-12T11:42:08.215Z,10.31
2023-03-12T11:44:42.208Z,10.46
2023-03-12T11:47:35.700Z,10.62
2023-03-12T11:50:10.892Z,10.71
2023-03-12T11:52:54.947Z,10.74
2023-03-12T11:55:43.774Z,10.74
2023-03-12T11:58:28.824Z,10.69
2023-03-12T12:01:44.275Z,10.63
2023-03-12T12:04:28.739Z,10.65
2023-03-12T12:07:41.349Z,10.69
2023-03-12T12:10:28.760Z,10.80
2023-03-12T12:13:32.677Z,10.95
2023-03-12T12:16:02.186Z,11.09
2023-03-12T12:18:47.152Z,11.31
2023-03-12T12:21:33.667Z,11.45
2023-03-12T12:24:18.653Z,11.53
2023-03-12T12:27:09.715Z,11.60
2023-03-12T12:30:07.106Z,11.72
2023-03-12T12:32:54.784Z,11.85
2023-03-12T12:35:35.497Z,11.94
2023-03-12T12:38:30.865Z,12.07
2023-03-12T12:41:09.923Z,12.16
2023-03-12T12:43:42.037Z,12.26
2023-03-12T12:46:22.626Z,12.34
2023-03-12T12:48:56.223Z,12.53
2023-03-12T12:51:27.319Z,12.60
2023-03-12T12:53:59.722Z,12.71
2023-03-12T12:56:33.022Z,12.70
2023-03-12T12:59:14.307Z,12.77
2023-03-12T13:01:41.332Z,12.85
2023-03-12T13:04:17.004Z,12.96
2023-03-12T13:07:03.124Z,13.19
2023-03-12T13:09:52.213Z,13.74
2023-03-12T13:12:32.690Z,14.15
2023-03-12T13:15:01.363Z,14.40
2023-03-12T13:17:35.687Z,14.41
2023-03-12T13:20:11.231Z,14.39
2023-03-12T13:22:37.624Z,14.33
2023-03-12T13:25:03.961Z,14.17
2023-03-12T13:27:36.429Z,14.04
2023-03-12T13:30:27.940Z,13.59
2023-03-12T13:32:57.463Z,13.60
2023-03-12T13:35:23.839Z,13.57
2023-03-12T13:37:53.180Z,13.36
2023-03-12T13:40:28.875Z,13.28
2023-03-12T13:43:37.038Z,13.27
2023-03-12T13:46:07.477Z,13.14
2023-03-12T13:48:35.616Z,13.14
2023-03-12T13:51:12.161Z,13.08
2023-03-12T13:53:40.734Z,13.09
2023-03-12T13:56:12.188Z,13.13
2023-03-12T13:58:50.165Z,13.18
2023-03-12T14:01:21.834Z,13.20
2023-03-12T14:03:57.931Z,13.22
2023-03-12T14:06:28.713Z,13.22
2023-03-12T14:09:04.436Z,13.27
2023-03-12T14:11:31.027Z,13.30
2023-03-12T14:14:09.851Z,13.30
2023-03-12T14:16:42.512Z,13.32
2023-03-12T14:19:19.638Z,13.35
2023-03-12T14:21:49.262Z,13.37
2023-03-12T14:24:23.361Z,13.37
2023-03-12T14:26:50.673Z,13.33
2023-03-12T14:29:31.385Z,13.25
2023-03-12T14:32:03.658Z,13.06
2023-03-12T14:34:43.069Z,12.87
2023-03-12T14:37:16.519Z,12.71
2023-03-12T14:39:55.526Z,12.66
2023-03-12T14:42:27.351Z,12.73
2023-03-12T14:44:57.815Z,12.74
2023-03-12T14:47:24.285Z,12.71
2023-03-12T14:49:50.760Z,12.76
2023-03-12T14:52:27.690Z,12.76
2023-03-12T14:55:00.831Z,12.83
2023-03-12T14:57:27.456Z,12.82
2023-03-12T14:59:58.966Z,12.83
2023-03-12T15:02:26.427Z,12.87
2023-03-12T15:04:56.079Z,12.89
2023-03-12T15:07:28.837Z,12.92
2023-03-12T15:09:55.326Z,12.92
2023-03-12T15:12:25.213Z,12.96
2023-03-12T15:15:03.319Z,12.97
2023-03-12T15:17:31.499Z,12.98
2023-03-12T15:19:58.581Z,12.97
2023-03-12T15:22:27.780Z,12.94
2023-03-12T15:24:54.593Z,12.93
2023-03-12T15:27:25.661Z,12.91
2023-03-12T15:29:52.573Z,12.78
2023-03-12T15:32:21.133Z,12.76
2023-03-12T15:34:48.057Z,12.74
2023-03-12T15:37:37.914Z,12.82
2023-03-12T15:40:22.002Z,12.87
2023-03-12T15:42:49.325Z,12.93
2023-03-12T15:45:22.580Z,13.01
2023-03-12T15:47:51.032Z,13.13
2023-03-12T15:50:30.353Z,13.24
2023-03-12T15:53:03.124Z,13.27
2023-03-12T15:55:34.702Z,13.25
2023-03-12T15:58:01.505Z,13.21
2023-03-12T16:00:35.636Z,13.21
2023-03-12T16:03:06.151Z,13.09
2023-03-12T16:05:35.805Z,13.13
2023-03-12T16:08:20.560Z,13.12
2023-03-12T16:10:49.128Z,13.09
2023-03-12T16:13:18.468Z,13.09
2023-03-12T16:15:47.341Z,13.10
2023-03-12T16:18:17.478Z,13.04
2023-03-12T16:20:45.189Z,13.05
2023-03-12T16:23:12.610Z,13.03
2023-03-12T16:25:41.946Z,13.04
2023-03-12T16:28:13.935Z,13.03
2023-03-12T16:30:40.365Z,13.03
2023-03-12T16:33:09.172Z,12.98
2023-03-12T16:35:36.318Z,13.00
2023-03-12T16:38:03.556Z,12.97
2023-03-12T16:40:34.268Z,12.98
2023-03-12T16:43:06.773Z,12.94
2023-03-12T16:45:37.129Z,12.93
2023-03-12T16:48:06.585Z,12.89
2023-03-12T16:50:33.037Z,12.88
2023-03-12T16:52:59.848Z,12.85
2023-03-12T16:55:29.496Z,12.83
2023-03-12T16:57:59.223Z,12.84
2023-03-12T17:00:32.689Z,12.83
2023-03-12T17:02:59.540Z,12.83
2023-03-12T17:05:27.830Z,12.82
2023-03-12T17:07:55.508Z,12.83
2023-03-12T17:10:22.820Z,12.77
2023-03-12T17:12:49.933Z,12.78
2023-03-12T17:15:25.794Z,12.74
2023-03-12T17:17:55.596Z,12.75
2023-03-12T17:20:24.147Z,12.76
2023-03-12T17:22:50.792Z,12.78
2023-03-12T17:25:22.144Z,12.75
2023-03-12T17:27:48.890Z,12.74
2023-03-12T17:30:15.390Z,12.75
2023-03-12T17:32:42.078Z,12.76
2023-03-12T17:35:08.793Z,12.74
2023-03-12T17:37:36.333Z,12.68
2023-03-12T17:40:08.083Z,12.63
2023-03-12T17:42:35.541Z,12.59
2023-03-12T17:45:02.937Z,12.63
2023-03-12T17:47:30.879Z,12.62
2023-03-12T17:49:57.851Z,12.66
2023-03-12T17:52:24.970Z,12.62
2023-03-12T17:54:51.595Z,12.62
2023-03-12T17:57:18.067Z,12.59
2023-03-12T17:59:44.520Z,12.55
2023-03-12T18:02:14.209Z,12.53
2023-03-12T18:04:40.647Z,12.53
2023-03-12T18:07:07.143Z,12.49
2023-03-12T18:09:33.689Z,12.43
2023-03-12T18:12:00.169Z,12.41
2023-03-12T18:14:26.674Z,12.41
2023-03-12T18:16:53.103Z,12.39
2023-03-12T18:19:19.538Z,12.36
2023-03-12T18:21:45.929Z,12.28
2023-03-12T18:24:14.476Z,12.28
2023-03-12T18:26:41.225Z,12.30
2023-03-12T18:29:07.691Z,12.30
2023-03-12T18:31:34.418Z,12.28
2023-03-12T18:34:00.832Z,12.26
2023-03-12T18:36:27.268Z,12.25
2023-03-12T18:38:53.663Z,12.24
2023-03-12T18:41:20.101Z,12.25
2023-03-12T18:43:46.518Z,12.23
2023-03-12T18:46:13.660Z,12.22
2023-03-12T18:48:41.799Z,12.23
2023-03-12T18:51:10.093Z,12.21
2023-03-12T18:53:36.494Z,12.22
2023-03-12T18:56:02.923Z,12.20
2023-03-12T18:58:29.349Z,12.15
2023-03-12T19:00:57.734Z,12.12
2023-03-12T19:03:25.644Z,12.08
2023-03-12T19:06:13.654Z,12.01
2023-03-12T19:08:40.839Z,11.96
2023-03-12T19:11:10.078Z,11.90
2023-03-12T19:13:36.778Z,11.85
2023-03-12T19:16:08.223Z,11.81
2023-03-12T19:18:35.646Z,11.75
2023-03-12T19:21:02.440Z,11.70
2023-03-12T19:23:29.465Z,11.66
2023-03-12T19:25:55.873Z,11.61
2023-03-12T19:28:22.529Z,11.55
2023-03-12T19:30:49.067Z,11.48
2023-03-12T19:33:15.581Z,11.42
2023-03-12T19:35:42.637Z,11.37
2023-03-12T19:38:09.099Z,11.31
2023-03-12T19:40:35.540Z,11.26
2023-03-12T19:43:02.769Z,11.19
2023-03-12T19:45:29.455Z,11.14
2023-03-12T19:47:56.010Z,11.09
2023-03-12T19:50:23.778Z,11.05
2023-03-12T19:52:50.282Z,11.02
2023-03-12T19:55:16.971Z,10.98
2023-03-12T19:57:43.413Z,10.92
2023-03-12T20:00:12.113Z,10.90
2023-03-12T20:02:39.262Z,10.85
2023-03-12T20:05:06.998Z,10.81
2023-03-12T20:07:33.375Z,10.76
2023-03-12T20:09:59.893Z,10.72
2023-03-12T20:12:26.491Z,10.70
2023-03-12T20:14:52.954Z,10.68
2023-03-12T20:17:19.362Z,10.64
2023-03-12T20:19:45.789Z,10.58
2023-03-12T20:22:12.418Z,10.54
2023-03-12T20:24:38.870Z,10.49
2023-03-12T20:27:05.400Z,10.45
2023-03-12T20:29:31.849Z,10.41
2023-03-12T20:31:58.293Z,10.38
2023-03-12T20:34:24.937Z,10.35
2023-03-12T20:36:51.399Z,10.32
2023-03-12T20:39:17.944Z,10.29
2023-03-12T20:41:44.317Z,10.26
2023-03-12T20:44:10.826Z,10.21
2023-03-12T20:46:37.276Z,10.17
2023-03-12T20:49:03.701Z,10.14
2023-03-12T20:51:30.103Z,10.12
2023-03-12T20:53:57.923Z,10.11
2023-03-12T20:56:24.348Z,10.08
2023-03-12T20:58:50.724Z,10.05
2023-03-12T21:01:17.139Z,10.03
2023-03-12T21:03:43.638Z,10.01
2023-03-12T21:06:10.035Z,9.99
2023-03-12T21:08:36.412Z,9.97
2023-03-12T21:11:06.903Z,9.95
2023-03-12T21:13:33.335Z,9.92
2023-03-12T21:15:59.780Z,9.88
2023-03-12T21:18:26.352Z,9.84
2023-03-12T21:20:53.043Z,9.81
2023-03-12T21:23:19.531Z,9.79
2023-03-12T21:25:46.127Z,9.78
2023-03-12T21:28:15.019Z,9.76
2023-03-12T21:30:41.496Z,9.73
2023-03-12T21:33:07.914Z,9.70
2023-03-12T21:35:34.463Z,9.68
2023-03-12T21:38:02.545Z,9.67
2023-03-12T21:40:29.097Z,9.66
2023-03-12T21:42:55.552Z,9.63
2023-03-12T21:45:22.139Z,9.66
2023-03-12T21:47:48.573Z,9.68
2023-03-12T21:50:14.963Z,9.69
2023-03-12T21:52:47.609Z,9.67
2023-03-12T21:55:14.618Z,9.67
2023-03-12T21:57:41.068Z,9.66
2023-03-12T22:00:12.816Z,9.66
2023-03-12T22:02:44.848Z,9.63
2023-03-12T22:05:12.326Z,9.63
2023-03-12T22:07:38.984Z,9.62
2023-03-12T22:10:07.320Z,9.63
2023-03-12T22:12:33.792Z,9.61
2023-03-12T22:15:00.295Z,9.62
2023-03-12T22:17:27.659Z,9.61
2023-03-12T22:19:54.537Z,9.62
2023-03-12T22:22:20.928Z,9.63
2023-03-12T22:24:47.333Z,9.67
2023-03-12T22:27:13.794Z,9.72
2023-03-12T22:29:40.253Z,9.76
2023-03-12T22:32:06.793Z,9.80
2023-03-12T22:34:33.927Z,9.81
2023-03-12T22:37:00.419Z,9.82
2023-03-12T22:39:26.784Z,9.83
2023-03-12T22:41:53.622Z,9.84
2023-03-12T22:44:20.122Z,9.84
2023-03-12T22:46:46.591Z,9.83
2023-03-12T22:49:14.817Z,9.82
2023-03-12T22:51:41.233Z,9.81
2023-03-12T22:54:07.664Z,9.76
2023-03-12T22:56:34.205Z,9.76
2023-03-12T22:59:00.661Z,9.89
2023-03-12T23:01:27.155Z,9.98
2023-03-12T23:03:53.735Z,10.06
2023-03-12T23:06:25.819Z,10.11
2023-03-12T23:08:54.747Z,10.11
2023-03-12T23:11:21.513Z,10.18
2023-03-12T23:13:49.706Z,10.23
2023-03-12T23:16:19.127Z,10.30
2023-03-12T23:18:46.257Z,10.36
2023-03-12T23:21:15.846Z,10.43
2023-03-12T23:23:43.545Z,10.50
2023-03-12T23:26:26.508Z,10.54
2023-03-12T23:28:58.284Z,10.57
2023-03-12T23:31:27.413Z,10.58
2023-03-12T23:33:54.370Z,10.55
2023-03-12T23:36:23.263Z,10.54
2023-03-12T23:38:50.566Z,10.55
2023-03-12T23:41:19.880Z,10.61
2023-03-12T23:43:47.040Z,10.67
2023-03-12T23:46:14.484Z,10.73
2023-03-12T23:48:41.064Z,10.79
2023-03-12T23:51:13.231Z,10.88
2023-03-12T23:53:41.067Z,10.93
2023-03-12T23:56:10.374Z,10.99
2023-03-12T23:58:37.118Z,11.03
